Terminal Aerodrome Forecast
Issued by NWS Lake Charles, LA

Home | Current Version | Previous Version | Text Only | Print | Product List | Glossary On
Versions: 1 2 3 4 5 6 7 8 9 10 11 12 13 14 15 16 17 18 19
189
FTUS44 KLCH 302051 AAA
TAFAEX
TAF AMD
KAEX 302051Z 3021/0118 13009KT P6SM SCT035
     FM010000 19005KT P6SM SCT025 BKN035
      TEMPO 0108/0112 2SM BR BKN005
     FM011200 15007KT P6SM VCTS SCT015 OVC025CB PROB30 0112/0118
      VRB20G30KT 1SM +TSRA OVC008CB=

USA.gov is the U.S. government's official web portal to all federal, state and local government web resources and services.